Search for airport 
image banner adimage banner adimage banner ad
image banner ad

58CA - Jay Stephen Hooper Memorial

Located in Los Angeles, United States

ICAO - 58CA, IATA -

Data provided by Airmate  

General information

Coordinates: N34°3'16" W118°13'46"
Elevation is 353 feet MSL.
Magnetic variation is 14° East
View others Airports in California

Operational data

Special qualification required
Current time UTC:
Current local time:
METAR: KHHR 141153Z AUTO 00000KT 10SM CLR 17/13 A2990 RMK AO2 SLP123 T01720133 10178 20167 58004
View NOTAMs / SUP AIP / TFR affecting this airport [VIEW]
Communications frequencies: [VIEW]

Runways:

Airport contact information

Address: Los Angeles United States

Satellite view of 58CA